createdAt,value
2024-05-09T00:00:00.586Z,3.4
2024-05-09T00:01:00.587Z,3.4
2024-05-09T00:02:00.579Z,3.7
2024-05-09T00:03:00.617Z,3.7
2024-05-09T00:04:00.792Z,3.7
2024-05-09T00:05:00.786Z,3.7
2024-05-09T00:06:00.754Z,3.7
2024-05-09T00:07:00.534Z,3.7
2024-05-09T00:08:00.709Z,3.7
2024-05-09T00:09:00.625Z,3.7
2024-05-09T00:10:01.123Z,3.7
2024-05-09T00:11:00.663Z,3.7
2024-05-09T00:12:00.776Z,3.9
2024-05-09T00:13:01.250Z,3.9
2024-05-09T00:14:01.056Z,3.9
2024-05-09T00:15:00.743Z,3.9
2024-05-09T00:16:00.570Z,3.9
2024-05-09T00:17:00.596Z,3.9
2024-05-09T00:18:00.802Z,3.9
2024-05-09T00:19:00.700Z,3.9
2024-05-09T00:20:00.630Z,3.9
2024-05-09T00:21:03.086Z,3.9
2024-05-09T00:22:00.542Z,3.3
2024-05-09T00:23:00.624Z,3.3
2024-05-09T00:24:00.522Z,3.3
2024-05-09T00:25:00.554Z,3.3
2024-05-09T00:26:00.661Z,3.3
2024-05-09T00:27:00.548Z,3.3
2024-05-09T00:28:00.703Z,3.3
2024-05-09T00:29:00.611Z,3.3
2024-05-09T00:30:00.690Z,3.3
2024-05-09T00:31:01.367Z,3.3
2024-05-09T00:32:00.736Z,3.9
2024-05-09T00:33:00.783Z,3.9
2024-05-09T00:34:00.811Z,3.9
2024-05-09T00:35:00.713Z,3.9
2024-05-09T00:36:00.611Z,3.9
2024-05-09T00:37:00.547Z,3.9
2024-05-09T00:38:01.002Z,3.9
2024-05-09T00:39:00.592Z,3.9
2024-05-09T00:40:00.560Z,3.9
2024-05-09T00:41:00.754Z,3.9
2024-05-09T00:42:00.526Z,3.0
2024-05-09T00:43:00.555Z,3.0
2024-05-09T00:44:00.720Z,3.0
2024-05-09T00:45:00.515Z,3.0
2024-05-09T00:46:00.896Z,3.0
2024-05-09T00:47:00.714Z,3.0
2024-05-09T00:48:02.592Z,3.0
2024-05-09T00:49:00.723Z,3.0
2024-05-09T00:50:01.072Z,3.0
2024-05-09T00:51:00.981Z,3.0
2024-05-09T00:52:01.090Z,2.8
2024-05-09T00:53:00.679Z,2.8
2024-05-09T00:54:00.826Z,2.8
2024-05-09T00:55:00.718Z,2.8
2024-05-09T00:56:00.800Z,2.8
2024-05-09T00:57:01.784Z,2.8
2024-05-09T00:58:00.896Z,2.8
2024-05-09T00:59:01.533Z,2.8
2024-05-09T01:00:00.694Z,2.8
2024-05-09T01:01:00.903Z,2.8
2024-05-09T01:02:00.678Z,3.3
2024-05-09T01:03:00.940Z,3.3
2024-05-09T01:04:01.370Z,3.3
2024-05-09T01:05:01.144Z,3.3
2024-05-09T01:06:00.593Z,3.3
2024-05-09T01:07:00.627Z,3.3
2024-05-09T01:08:01.084Z,3.3
2024-05-09T01:09:00.544Z,3.3
2024-05-09T01:10:00.517Z,3.3
2024-05-09T01:11:00.695Z,3.3
2024-05-09T01:12:00.804Z,3.1
2024-05-09T01:13:00.549Z,3.1
2024-05-09T01:14:00.655Z,3.1
2024-05-09T01:15:00.625Z,3.1
2024-05-09T01:16:01.379Z,3.1
2024-05-09T01:17:00.647Z,3.1
2024-05-09T01:18:03.263Z,3.1
2024-05-09T01:19:03.224Z,3.1
2024-05-09T01:20:00.656Z,3.1
2024-05-09T01:21:00.638Z,3.1
2024-05-09T01:22:00.508Z,2.2
2024-05-09T01:23:07.911Z,2.2
2024-05-09T01:24:00.641Z,2.2
2024-05-09T01:25:00.638Z,2.2
2024-05-09T01:26:00.692Z,2.2
2024-05-09T01:27:00.652Z,2.2
2024-05-09T01:28:00.740Z,2.2
2024-05-09T01:29:00.693Z,2.2
2024-05-09T01:30:00.797Z,2.2
2024-05-09T01:31:00.529Z,2.2
2024-05-09T01:32:00.826Z,2.6
2024-05-09T01:33:00.961Z,2.6
2024-05-09T01:34:00.735Z,2.6
2024-05-09T01:35:00.739Z,2.6
2024-05-09T01:36:00.869Z,2.6
2024-05-09T01:37:00.595Z,2.6
2024-05-09T01:38:00.643Z,2.6
2024-05-09T01:39:00.551Z,2.6
2024-05-09T01:40:00.594Z,2.6
2024-05-09T01:41:00.694Z,2.6
2024-05-09T01:42:00.593Z,2.8
2024-05-09T01:43:00.603Z,2.8
2024-05-09T01:44:00.687Z,2.8
2024-05-09T01:45:00.558Z,2.8
2024-05-09T01:46:00.540Z,2.8
2024-05-09T01:47:00.661Z,2.8
2024-05-09T01:48:01.272Z,2.8
2024-05-09T01:49:00.767Z,2.8
2024-05-09T01:50:00.664Z,2.8
2024-05-09T01:51:00.758Z,2.8
2024-05-09T01:52:00.552Z,3.7
2024-05-09T01:53:00.634Z,3.7
2024-05-09T01:54:01.111Z,3.7
2024-05-09T01:55:04.511Z,3.7
2024-05-09T01:56:00.691Z,3.7
2024-05-09T01:57:00.530Z,3.7
2024-05-09T01:58:00.598Z,3.7
2024-05-09T01:59:00.683Z,3.7
2024-05-09T02:00:00.609Z,3.7
2024-05-09T02:01:00.896Z,3.7
2024-05-09T02:02:00.957Z,3.2
2024-05-09T02:03:00.854Z,3.2
2024-05-09T02:04:00.763Z,3.2
2024-05-09T02:05:00.682Z,3.2
2024-05-09T02:06:00.613Z,3.2
2024-05-09T02:07:00.677Z,3.2
2024-05-09T02:08:00.546Z,3.2
2024-05-09T02:09:00.634Z,3.2
2024-05-09T02:10:00.521Z,3.2
2024-05-09T02:11:00.677Z,3.2
2024-05-09T02:12:00.899Z,3.2
2024-05-09T02:13:00.592Z,1.9
2024-05-09T02:14:00.681Z,1.9
2024-05-09T02:15:00.577Z,1.9
2024-05-09T02:16:00.576Z,1.9
2024-05-09T02:17:00.638Z,1.9
2024-05-09T02:18:00.891Z,1.9
2024-05-09T02:19:00.636Z,1.9
2024-05-09T02:20:00.705Z,1.9
2024-05-09T02:21:00.833Z,1.9
2024-05-09T02:22:00.624Z,1.9
2024-05-09T02:23:00.638Z,2.7
2024-05-09T02:24:00.603Z,2.7
2024-05-09T02:25:00.519Z,2.7
2024-05-09T02:26:00.732Z,2.7
2024-05-09T02:27:00.631Z,2.7
2024-05-09T02:28:00.723Z,2.7
2024-05-09T02:29:00.618Z,2.7
2024-05-09T02:30:00.634Z,2.7
2024-05-09T02:31:00.636Z,2.7
2024-05-09T02:32:00.828Z,2.7
2024-05-09T02:33:00.823Z,2.0
2024-05-09T02:34:01.003Z,2.0
2024-05-09T02:35:00.609Z,2.0
2024-05-09T02:36:00.544Z,2.0
2024-05-09T02:37:00.545Z,2.0
2024-05-09T02:38:00.877Z,2.0
2024-05-09T02:39:00.540Z,2.0
2024-05-09T02:40:00.527Z,2.0
2024-05-09T02:41:00.559Z,2.0
2024-05-09T02:42:00.619Z,2.0
2024-05-09T02:43:00.499Z,1.8
2024-05-09T02:44:00.683Z,1.8
2024-05-09T02:45:00.520Z,1.8
2024-05-09T02:46:00.557Z,1.8
2024-05-09T02:47:00.602Z,1.8
2024-05-09T02:48:01.465Z,1.8
2024-05-09T02:49:00.633Z,1.8
2024-05-09T02:50:00.680Z,1.8
2024-05-09T02:51:00.910Z,1.8
2024-05-09T02:52:00.577Z,1.8
2024-05-09T02:53:00.734Z,2.4
2024-05-09T02:54:00.570Z,2.4
2024-05-09T02:55:00.600Z,2.4
2024-05-09T02:56:00.732Z,2.4
2024-05-09T02:57:00.551Z,2.4
2024-05-09T02:58:00.721Z,2.4
2024-05-09T02:59:00.665Z,2.4
2024-05-09T03:00:00.557Z,2.4
2024-05-09T03:01:00.866Z,2.4
2024-05-09T03:02:00.709Z,2.4
2024-05-09T03:03:01.166Z,2.3
2024-05-09T03:04:01.001Z,2.3
2024-05-09T03:05:00.654Z,2.3
2024-05-09T03:06:00.751Z,2.3
2024-05-09T03:07:00.686Z,2.3
2024-05-09T03:08:00.608Z,2.3
2024-05-09T03:09:00.550Z,2.3
2024-05-09T03:10:00.677Z,2.3
2024-05-09T03:11:00.633Z,2.3
2024-05-09T03:12:00.781Z,2.3
2024-05-09T03:13:04.279Z,2.1
2024-05-09T03:14:00.800Z,2.1
2024-05-09T03:15:00.614Z,2.1
2024-05-09T03:16:00.589Z,2.1
2024-05-09T03:17:00.577Z,2.1
2024-05-09T03:18:00.892Z,2.1
2024-05-09T03:19:00.729Z,2.1
2024-05-09T03:20:01.631Z,2.1
2024-05-09T03:21:00.759Z,2.1
2024-05-09T03:22:00.553Z,2.1
2024-05-09T03:23:00.596Z,4.1
2024-05-09T03:24:00.537Z,4.1
2024-05-09T03:25:00.647Z,4.1
2024-05-09T03:26:00.687Z,4.1
2024-05-09T03:27:00.554Z,4.1
2024-05-09T03:28:00.538Z,4.1
2024-05-09T03:29:00.570Z,4.1
2024-05-09T03:30:00.667Z,4.1
2024-05-09T03:31:00.596Z,4.1
2024-05-09T03:32:00.785Z,4.1
2024-05-09T03:33:00.848Z,3.5
2024-05-09T03:34:00.769Z,3.5
2024-05-09T03:35:00.644Z,3.5
2024-05-09T03:36:01.474Z,3.5
2024-05-09T03:37:00.660Z,3.5
2024-05-09T03:38:00.572Z,3.5
2024-05-09T03:39:00.541Z,3.5
2024-05-09T03:40:00.673Z,3.5
2024-05-09T03:41:00.670Z,3.5
2024-05-09T03:42:00.595Z,3.5
2024-05-09T03:43:00.565Z,4.0
2024-05-09T03:44:00.692Z,4.0
2024-05-09T03:45:00.688Z,4.0
2024-05-09T03:46:00.584Z,4.0
2024-05-09T03:47:00.702Z,4.0
2024-05-09T03:48:00.827Z,4.0
2024-05-09T03:49:00.721Z,4.0
2024-05-09T03:50:00.821Z,4.0
2024-05-09T03:51:00.651Z,4.0
2024-05-09T03:52:00.558Z,4.0
2024-05-09T03:53:01.280Z,3.8
2024-05-09T03:54:00.543Z,3.8
2024-05-09T03:55:00.523Z,3.8
2024-05-09T03:56:00.685Z,3.8
2024-05-09T03:57:00.679Z,3.8
2024-05-09T03:58:00.622Z,3.8
2024-05-09T03:59:00.732Z,3.8
2024-05-09T04:00:00.560Z,3.8
2024-05-09T04:01:00.599Z,3.8
2024-05-09T04:02:00.665Z,3.8
2024-05-09T04:03:00.850Z,4.5
2024-05-09T04:04:00.605Z,4.5
2024-05-09T04:05:00.597Z,4.5
2024-05-09T04:06:00.510Z,4.5
2024-05-09T04:07:00.598Z,4.5
2024-05-09T04:08:00.814Z,4.5
2024-05-09T04:09:00.637Z,4.5
2024-05-09T04:10:00.664Z,4.5
2024-05-09T04:11:00.640Z,4.5
2024-05-09T04:12:00.772Z,4.5
2024-05-09T04:13:00.957Z,4.5
2024-05-09T04:14:00.594Z,4.5
2024-05-09T04:15:00.546Z,4.5
2024-05-09T04:16:00.572Z,4.5
2024-05-09T04:17:00.600Z,4.5
2024-05-09T04:18:01.668Z,4.5
2024-05-09T04:19:00.672Z,4.5
2024-05-09T04:20:00.814Z,4.5
2024-05-09T04:21:01.984Z,4.5
2024-05-09T04:22:00.528Z,4.5
2024-05-09T04:23:00.622Z,3.9
2024-05-09T04:24:00.540Z,3.9
2024-05-09T04:25:00.558Z,3.9
2024-05-09T04:26:00.713Z,3.9
2024-05-09T04:27:00.690Z,3.9
2024-05-09T04:28:00.748Z,3.9
2024-05-09T04:29:00.604Z,3.9
2024-05-09T04:30:00.689Z,3.9
2024-05-09T04:31:00.537Z,3.9
2024-05-09T04:32:00.794Z,3.9
2024-05-09T04:33:01.155Z,3.0
2024-05-09T04:34:00.722Z,3.0
2024-05-09T04:35:00.741Z,3.0
2024-05-09T04:36:00.547Z,3.0
2024-05-09T04:37:01.185Z,3.0
2024-05-09T04:38:00.752Z,3.0
2024-05-09T04:39:00.571Z,3.0
2024-05-09T04:40:00.579Z,3.0
2024-05-09T04:41:00.629Z,3.0
2024-05-09T04:42:00.504Z,3.0
2024-05-09T04:43:00.598Z,4.6
2024-05-09T04:44:00.559Z,4.6
2024-05-09T04:45:00.518Z,4.6
2024-05-09T04:46:00.612Z,4.6
2024-05-09T04:47:00.579Z,4.6
2024-05-09T04:48:01.334Z,4.6
2024-05-09T04:49:00.964Z,4.6
2024-05-09T04:50:00.582Z,4.6
2024-05-09T04:51:00.831Z,4.6
2024-05-09T04:52:00.588Z,4.6
2024-05-09T04:53:00.580Z,3.4
2024-05-09T04:54:00.684Z,3.4
2024-05-09T04:55:00.584Z,3.4
2024-05-09T04:56:00.727Z,3.4
2024-05-09T04:57:00.592Z,3.4
2024-05-09T04:58:00.630Z,3.4
2024-05-09T04:59:00.625Z,3.4
2024-05-09T05:00:00.540Z,3.4
2024-05-09T05:01:00.655Z,3.4
2024-05-09T05:02:00.900Z,3.4
2024-05-09T05:03:00.756Z,5.3
2024-05-09T05:04:00.772Z,5.3
2024-05-09T05:05:00.877Z,5.3
2024-05-09T05:06:00.635Z,5.3
2024-05-09T05:07:02.845Z,5.3
2024-05-09T05:08:00.712Z,5.3
2024-05-09T05:09:00.544Z,5.3
2024-05-09T05:10:00.555Z,5.3
2024-05-09T05:11:00.753Z,5.3
2024-05-09T05:12:00.790Z,5.3
2024-05-09T05:13:00.548Z,5.1
2024-05-09T05:14:00.615Z,5.1
2024-05-09T05:15:00.561Z,5.1
2024-05-09T05:16:00.746Z,5.1
2024-05-09T05:17:00.569Z,5.1
2024-05-09T05:18:00.787Z,5.1
2024-05-09T05:19:00.723Z,5.1
2024-05-09T05:20:00.810Z,5.1
2024-05-09T05:21:00.614Z,5.1
2024-05-09T05:22:00.551Z,5.1
2024-05-09T05:23:00.950Z,4.2
2024-05-09T05:24:00.574Z,4.2
2024-05-09T05:25:00.573Z,4.2
2024-05-09T05:26:00.625Z,4.2
2024-05-09T05:27:00.628Z,4.2
2024-05-09T05:28:00.543Z,4.2
2024-05-09T05:29:00.573Z,4.2
2024-05-09T05:30:00.585Z,4.2
2024-05-09T05:31:00.602Z,4.2
2024-05-09T05:32:00.781Z,4.2
2024-05-09T05:33:01.007Z,7.3
2024-05-09T05:34:00.676Z,7.3
2024-05-09T05:35:00.722Z,7.3
2024-05-09T05:36:00.581Z,7.3
2024-05-09T05:37:00.534Z,7.3
2024-05-09T05:38:00.874Z,7.3
2024-05-09T05:39:00.548Z,7.3
2024-05-09T05:40:01.324Z,7.3
2024-05-09T05:41:00.620Z,7.3
2024-05-09T05:42:00.611Z,7.3
2024-05-09T05:43:00.539Z,14.8
2024-05-09T05:44:00.607Z,14.8
2024-05-09T05:45:00.593Z,14.8
2024-05-09T05:46:00.513Z,14.8
2024-05-09T05:47:00.637Z,14.8
2024-05-09T05:48:02.601Z,14.8
2024-05-09T05:49:00.752Z,14.8
2024-05-09T05:50:00.705Z,14.8
2024-05-09T05:51:04.206Z,14.8
2024-05-09T05:52:00.542Z,14.8
2024-05-09T05:53:00.736Z,4.8
2024-05-09T05:54:00.542Z,4.8
2024-05-09T05:55:00.554Z,4.8
2024-05-09T05:56:00.713Z,4.8
2024-05-09T05:57:00.535Z,4.8
2024-05-09T05:58:00.918Z,4.8
2024-05-09T05:59:00.624Z,4.8
2024-05-09T06:00:00.630Z,4.8
2024-05-09T06:01:00.640Z,4.8
2024-05-09T06:02:00.604Z,4.8
2024-05-09T06:03:00.744Z,7.9
2024-05-09T06:04:00.697Z,7.9
2024-05-09T06:05:01.097Z,7.9
2024-05-09T06:06:01.624Z,7.9
2024-05-09T06:07:00.542Z,7.9
2024-05-09T06:08:00.998Z,7.9
2024-05-09T06:09:00.527Z,7.9
2024-05-09T06:10:00.611Z,7.9
2024-05-09T06:11:01.795Z,7.9
2024-05-09T06:12:00.792Z,7.9
2024-05-09T06:13:00.537Z,19.3
2024-05-09T06:14:00.673Z,19.3
2024-05-09T06:15:00.516Z,19.3
2024-05-09T06:16:00.532Z,19.3
2024-05-09T06:17:00.737Z,19.3
2024-05-09T06:18:01.371Z,19.3
2024-05-09T06:19:00.675Z,19.3
2024-05-09T06:20:00.602Z,19.3
2024-05-09T06:21:00.589Z,19.3
2024-05-09T06:22:00.601Z,19.3
2024-05-09T06:23:00.686Z,20.3
2024-05-09T06:24:02.526Z,20.3
2024-05-09T06:25:00.537Z,20.3
2024-05-09T06:26:00.616Z,20.3
2024-05-09T06:27:00.597Z,20.3
2024-05-09T06:28:00.958Z,20.3
2024-05-09T06:29:00.603Z,20.3
2024-05-09T06:30:00.572Z,20.3
2024-05-09T06:31:00.909Z,20.3
2024-05-09T06:32:00.817Z,20.3
2024-05-09T06:33:00.851Z,9.2
2024-05-09T06:34:00.775Z,9.2
2024-05-09T06:35:00.604Z,9.2
2024-05-09T06:36:00.593Z,9.2
2024-05-09T06:37:00.588Z,9.2
2024-05-09T06:38:00.669Z,9.2
2024-05-09T06:39:00.527Z,9.2
2024-05-09T06:40:00.550Z,9.2
2024-05-09T06:41:00.691Z,9.2
2024-05-09T06:42:00.555Z,9.2
2024-05-09T06:43:00.557Z,6.2
2024-05-09T06:44:00.830Z,6.2
2024-05-09T06:45:00.692Z,6.2
2024-05-09T06:46:00.579Z,6.2
2024-05-09T06:47:00.708Z,6.2
2024-05-09T06:48:00.950Z,6.2
2024-05-09T06:49:00.609Z,6.2
2024-05-09T06:50:00.711Z,6.2
2024-05-09T06:51:00.697Z,6.2
2024-05-09T06:52:00.511Z,6.2
2024-05-09T06:53:00.720Z,9.3
2024-05-09T06:54:00.557Z,9.3
2024-05-09T06:55:00.675Z,9.3
2024-05-09T06:56:00.565Z,9.3
2024-05-09T06:57:00.541Z,9.3
2024-05-09T06:58:00.821Z,9.3
2024-05-09T06:59:01.995Z,9.3
2024-05-09T07:00:00.726Z,9.3
2024-05-09T07:01:00.557Z,9.3
2024-05-09T07:02:01.323Z,9.3
2024-05-09T07:03:04.795Z,5.6
2024-05-09T07:04:00.661Z,5.6
2024-05-09T07:05:00.702Z,5.6
2024-05-09T07:06:00.713Z,5.6
2024-05-09T07:07:00.556Z,5.6
2024-05-09T07:08:00.648Z,5.6
2024-05-09T07:09:00.650Z,5.6
2024-05-09T07:10:00.547Z,5.6
2024-05-09T07:11:00.721Z,5.6
2024-05-09T07:12:00.610Z,5.6
2024-05-09T07:13:00.626Z,4.3
2024-05-09T07:14:00.531Z,4.3
2024-05-09T07:15:00.600Z,4.3
2024-05-09T07:16:00.557Z,4.3
2024-05-09T07:17:00.694Z,4.3
2024-05-09T07:18:00.740Z,4.3
2024-05-09T07:19:00.779Z,4.3
2024-05-09T07:20:00.838Z,4.3
2024-05-09T07:21:00.689Z,4.3
2024-05-09T07:22:00.542Z,4.3
2024-05-09T07:23:01.689Z,4.8
2024-05-09T07:24:01.553Z,4.8
2024-05-09T07:25:00.544Z,4.8
2024-05-09T07:26:00.654Z,4.8
2024-05-09T07:27:00.537Z,4.8
2024-05-09T07:28:00.667Z,4.8
2024-05-09T07:29:00.623Z,4.8
2024-05-09T07:30:00.593Z,4.8
2024-05-09T07:31:00.589Z,4.8
2024-05-09T07:32:00.624Z,4.8
2024-05-09T07:33:01.475Z,3.4
2024-05-09T07:34:00.876Z,3.4
2024-05-09T07:35:00.672Z,3.4
2024-05-09T07:36:00.577Z,3.4
2024-05-09T07:37:00.556Z,3.4
2024-05-09T07:38:00.640Z,3.4
2024-05-09T07:39:00.590Z,3.4
2024-05-09T07:40:00.536Z,3.4
2024-05-09T07:41:00.564Z,3.4
2024-05-09T07:42:00.615Z,3.4
2024-05-09T07:43:01.781Z,5.0
2024-05-09T07:44:00.632Z,5.0
2024-05-09T07:45:20.573Z,5.0
2024-05-09T07:46:45.427Z,5.0
2024-05-09T07:50:35.946Z,5.0
2024-05-09T07:51:47.634Z,5.0
2024-05-09T07:53:07.536Z,5.0
2024-05-09T07:53:25.346Z,5.0
2024-05-09T07:53:36.032Z,4.9
2024-05-09T07:54:01.543Z,4.9
2024-05-09T07:55:00.953Z,4.9
2024-05-09T07:56:00.863Z,4.9
2024-05-09T07:57:00.663Z,4.9
2024-05-09T07:58:00.612Z,4.9
2024-05-09T07:59:00.580Z,4.9
2024-05-09T08:00:00.533Z,4.9
2024-05-09T08:01:00.798Z,4.9
2024-05-09T08:02:00.860Z,4.9
2024-05-09T08:03:00.554Z,3.2
2024-05-09T08:04:00.834Z,3.2
2024-05-09T08:05:00.729Z,3.2
2024-05-09T08:06:00.562Z,3.2
2024-05-09T08:07:00.635Z,3.2
2024-05-09T08:08:00.557Z,3.2
2024-05-09T08:09:05.328Z,3.2
2024-05-09T08:10:00.680Z,3.2
2024-05-09T08:11:01.416Z,3.2
2024-05-09T08:12:00.568Z,3.2
2024-05-09T08:13:00.602Z,4.6
2024-05-09T08:14:00.520Z,4.6
2024-05-09T08:15:00.556Z,4.6
2024-05-09T08:16:00.941Z,4.6
2024-05-09T08:17:00.697Z,4.6
2024-05-09T08:18:00.890Z,4.6
2024-05-09T08:19:00.764Z,4.6
2024-05-09T08:20:02.027Z,4.6
2024-05-09T08:21:00.653Z,4.6
2024-05-09T08:22:00.659Z,4.6
2024-05-09T08:23:00.600Z,3.7
2024-05-09T08:24:00.620Z,3.7
2024-05-09T08:25:00.913Z,3.7
2024-05-09T08:26:00.601Z,3.7
2024-05-09T08:27:00.987Z,3.7
2024-05-09T08:28:02.579Z,3.7
2024-05-09T08:29:00.681Z,3.7
2024-05-09T08:30:00.583Z,3.7
2024-05-09T08:31:04.131Z,3.7
2024-05-09T08:32:00.693Z,3.7
2024-05-09T08:33:00.661Z,3.6
2024-05-09T08:34:00.757Z,3.6
2024-05-09T08:35:00.741Z,3.6
2024-05-09T08:36:00.580Z,3.6
2024-05-09T08:37:06.141Z,3.6
2024-05-09T08:38:01.785Z,3.6
2024-05-09T08:39:00.540Z,3.6
2024-05-09T08:40:00.759Z,3.6
2024-05-09T08:41:02.382Z,3.6
2024-05-09T08:42:00.769Z,3.6
2024-05-09T08:43:01.335Z,2.4
2024-05-09T08:44:01.416Z,2.4
2024-05-09T08:45:00.718Z,2.4
2024-05-09T08:46:01.027Z,2.4
2024-05-09T08:47:01.669Z,2.4
2024-05-09T08:48:01.766Z,2.4
2024-05-09T08:49:01.993Z,2.4
2024-05-09T08:50:01.776Z,2.4
2024-05-09T08:51:00.531Z,2.4
2024-05-09T08:52:00.787Z,2.4
2024-05-09T08:53:00.624Z,3.9
2024-05-09T08:54:00.554Z,3.9
2024-05-09T08:55:00.874Z,3.9
2024-05-09T08:56:01.255Z,3.9
2024-05-09T08:57:01.287Z,3.9
2024-05-09T08:58:02.527Z,3.9
2024-05-09T08:59:00.950Z,3.9
2024-05-09T09:00:04.753Z,3.9
2024-05-09T09:01:01.428Z,3.9
2024-05-09T09:02:01.154Z,3.9
2024-05-09T09:03:01.707Z,3.9
2024-05-09T09:04:01.628Z,3.9
2024-05-09T09:06:01.540Z,3.9
2024-05-09T09:07:02.363Z,3.9
2024-05-09T09:08:03.277Z,3.9
2024-05-09T09:09:02.136Z,3.9
2024-05-09T09:10:01.501Z,3.9
2024-05-09T09:11:00.671Z,3.9
2024-05-09T09:12:00.613Z,3.9
2024-05-09T09:13:00.980Z,5.0
2024-05-09T09:14:00.524Z,5.0
2024-05-09T09:15:00.603Z,5.0
2024-05-09T09:16:00.825Z,5.0
2024-05-09T09:17:10.528Z,5.0
2024-05-09T09:18:01.328Z,5.0
2024-05-09T09:19:00.660Z,5.0
2024-05-09T09:20:00.743Z,5.0
2024-05-09T09:21:00.573Z,5.0
2024-05-09T09:22:00.714Z,5.0
2024-05-09T09:23:00.546Z,4.0
2024-05-09T09:24:00.642Z,4.0
2024-05-09T09:25:00.690Z,4.0
2024-05-09T09:26:00.734Z,4.0
2024-05-09T09:27:00.596Z,4.0
2024-05-09T09:28:00.711Z,4.0
2024-05-09T09:29:00.538Z,4.0
2024-05-09T09:30:00.604Z,4.0
2024-05-09T09:31:01.466Z,4.0
2024-05-09T09:32:01.517Z,4.0
2024-05-09T09:33:00.658Z,4.0
2024-05-09T09:34:05.559Z,6.2
2024-05-09T09:35:00.728Z,6.2
2024-05-09T09:36:01.705Z,6.2
2024-05-09T09:37:04.524Z,6.2
2024-05-09T09:38:02.149Z,6.2
2024-05-09T09:39:01.439Z,6.2
2024-05-09T09:40:01.766Z,6.2
2024-05-09T09:41:05.475Z,6.2
2024-05-09T09:42:01.332Z,6.2
2024-05-09T09:43:00.698Z,6.2
2024-05-09T09:44:02.736Z,4.6
2024-05-09T09:45:05.132Z,4.6
2024-05-09T09:46:00.665Z,4.6
2024-05-09T09:47:01.359Z,4.6
2024-05-09T09:48:00.919Z,4.6
2024-05-09T09:49:01.207Z,4.6
2024-05-09T09:50:00.860Z,4.6
2024-05-09T09:51:00.787Z,4.6
2024-05-09T09:52:00.931Z,4.6
2024-05-09T09:53:01.368Z,4.6
2024-05-09T09:54:02.619Z,4.9
2024-05-09T09:55:01.727Z,4.9
2024-05-09T09:56:00.762Z,4.9
2024-05-09T09:57:02.106Z,4.9
2024-05-09T09:58:02.696Z,4.9
2024-05-09T09:59:01.595Z,4.9
2024-05-09T10:00:00.667Z,4.9
2024-05-09T10:01:00.865Z,4.9
2024-05-09T10:02:00.866Z,4.9
2024-05-09T10:03:01.717Z,4.9
2024-05-09T10:04:01.145Z,6.0
2024-05-09T10:05:01.132Z,6.0
2024-05-09T10:06:00.974Z,6.0
2024-05-09T10:07:02.226Z,6.0
2024-05-09T10:08:03.007Z,6.0
2024-05-09T10:09:00.956Z,6.0
2024-05-09T10:10:00.703Z,6.0
2024-05-09T10:11:02.486Z,6.0
2024-05-09T10:12:09.496Z,6.0
2024-05-09T10:13:02.376Z,6.0
2024-05-09T10:14:00.784Z,4.7
2024-05-09T10:15:10.070Z,4.7
2024-05-09T10:16:06.845Z,4.7
2024-05-09T10:17:04.084Z,4.7
2024-05-09T10:18:04.237Z,4.7
2024-05-09T10:19:01.017Z,4.7
2024-05-09T10:20:14.812Z,4.7
2024-05-09T10:21:00.558Z,4.7
2024-05-09T10:22:01.257Z,4.7
2024-05-09T10:23:00.573Z,4.7
2024-05-09T10:24:02.228Z,5.8
2024-05-09T10:25:05.260Z,5.8
2024-05-09T10:26:01.986Z,5.8
2024-05-09T10:27:02.715Z,5.8
2024-05-09T10:28:00.591Z,5.8
2024-05-09T10:29:09.695Z,5.8
2024-05-09T10:30:01.261Z,5.8
2024-05-09T10:31:16.796Z,5.8
2024-05-09T10:32:00.794Z,5.8
2024-05-09T10:33:00.710Z,5.8
2024-05-09T10:34:00.913Z,5.2
2024-05-09T10:35:08.941Z,5.2
2024-05-09T10:36:02.078Z,5.2
2024-05-09T10:37:02.657Z,5.2
2024-05-09T10:38:04.537Z,5.2
2024-05-09T10:39:00.676Z,5.2
2024-05-09T10:40:00.970Z,5.2
2024-05-09T10:41:00.924Z,5.2
2024-05-09T10:42:00.624Z,5.2
2024-05-09T10:43:04.602Z,5.2
2024-05-09T10:44:00.527Z,4.7
2024-05-09T10:45:00.825Z,4.7
2024-05-09T10:46:00.648Z,4.7
2024-05-09T10:47:00.721Z,4.7
2024-05-09T10:48:00.877Z,4.7
2024-05-09T10:49:04.266Z,4.7
2024-05-09T10:50:01.022Z,4.7
2024-05-09T10:51:00.617Z,4.7
2024-05-09T10:52:02.645Z,4.7
2024-05-09T10:53:01.289Z,4.7
2024-05-09T10:54:00.572Z,4.9
2024-05-09T10:55:02.292Z,4.9
2024-05-09T10:56:00.562Z,4.9
2024-05-09T10:57:00.637Z,4.9
2024-05-09T10:58:00.605Z,4.9
2024-05-09T10:59:03.774Z,4.9
2024-05-09T11:00:00.568Z,4.9
2024-05-09T11:02:02.978Z,4.9
2024-05-09T11:03:00.635Z,4.9
2024-05-09T11:04:00.849Z,4.4
2024-05-09T11:05:00.697Z,4.4
2024-05-09T11:06:00.549Z,4.4
2024-05-09T11:07:05.435Z,4.4
2024-05-09T11:08:00.679Z,4.4
2024-05-09T11:09:00.572Z,4.4
2024-05-09T11:10:00.894Z,4.4
2024-05-09T11:11:01.565Z,4.4
2024-05-09T11:12:01.331Z,4.4
2024-05-09T11:13:00.717Z,4.4
2024-05-09T11:14:10.243Z,4.4
2024-05-09T11:15:00.569Z,4.4
2024-05-09T11:16:01.350Z,4.4
2024-05-09T11:17:01.388Z,4.4
2024-05-09T11:18:00.685Z,4.4
2024-05-09T11:19:00.912Z,4.4
2024-05-09T11:20:00.788Z,4.4
2024-05-09T11:21:00.700Z,4.4
2024-05-09T11:22:00.587Z,4.4
2024-05-09T11:23:07.789Z,4.4
2024-05-09T11:24:00.562Z,5.0
2024-05-09T11:25:00.676Z,5.0
2024-05-09T11:26:00.733Z,5.0
2024-05-09T11:27:01.343Z,5.0
2024-05-09T11:28:01.088Z,5.0
2024-05-09T11:29:00.551Z,5.0
2024-05-09T11:30:00.525Z,5.0
2024-05-09T11:31:04.529Z,5.0
2024-05-09T11:32:00.601Z,5.0
2024-05-09T11:33:00.838Z,5.0
2024-05-09T11:34:00.672Z,4.2
2024-05-09T11:35:00.547Z,4.2
2024-05-09T11:36:00.561Z,4.2
2024-05-09T11:37:00.717Z,4.2
2024-05-09T11:38:00.549Z,4.2
2024-05-09T11:39:00.640Z,4.2
2024-05-09T11:40:00.629Z,4.2
2024-05-09T11:41:00.973Z,4.2
2024-05-09T11:42:00.653Z,4.2
2024-05-09T11:43:00.604Z,4.2
2024-05-09T11:44:01.039Z,4.1
2024-05-09T11:45:00.569Z,4.1
2024-05-09T11:46:01.345Z,4.1
2024-05-09T11:47:01.298Z,4.1
2024-05-09T11:48:00.827Z,4.1
2024-05-09T11:49:00.787Z,4.1
2024-05-09T11:50:00.755Z,4.1
2024-05-09T11:51:00.523Z,4.1
2024-05-09T11:52:00.758Z,4.1
2024-05-09T11:53:00.684Z,4.1
2024-05-09T11:54:00.608Z,4.8
2024-05-09T11:55:00.601Z,4.8
2024-05-09T11:56:00.559Z,4.8
2024-05-09T11:57:00.583Z,4.8
2024-05-09T11:58:01.373Z,4.8
2024-05-09T11:59:00.659Z,4.8
2024-05-09T12:00:00.676Z,4.8
2024-05-09T12:01:00.743Z,4.8
2024-05-09T12:02:00.671Z,4.8
2024-05-09T12:03:00.588Z,4.8
2024-05-09T12:04:01.246Z,5.2
2024-05-09T12:05:00.706Z,5.2
2024-05-09T12:06:00.911Z,5.2
2024-05-09T12:07:00.717Z,5.2
2024-05-09T12:08:00.655Z,5.2
2024-05-09T12:09:00.522Z,5.2
2024-05-09T12:10:00.738Z,5.2
2024-05-09T12:11:00.948Z,5.2
2024-05-09T12:12:00.597Z,5.2
2024-05-09T12:13:00.576Z,5.2
2024-05-09T12:14:00.530Z,5.9
2024-05-09T12:15:01.447Z,5.9
2024-05-09T12:16:00.639Z,5.9
2024-05-09T12:17:00.724Z,5.9
2024-05-09T12:18:03.604Z,5.9
2024-05-09T12:19:00.737Z,5.9
2024-05-09T12:20:00.567Z,5.9
2024-05-09T12:21:00.843Z,5.9
2024-05-09T12:22:00.616Z,5.9
2024-05-09T12:23:00.530Z,5.9
2024-05-09T12:24:00.564Z,3.5
2024-05-09T12:25:00.578Z,3.5
2024-05-09T12:26:00.784Z,3.5
2024-05-09T12:27:00.613Z,3.5
2024-05-09T12:28:01.223Z,3.5
2024-05-09T12:29:00.505Z,3.5
2024-05-09T12:30:00.531Z,3.5
2024-05-09T12:31:00.621Z,3.5
2024-05-09T12:32:00.676Z,3.5
2024-05-09T12:33:00.590Z,3.5
2024-05-09T12:34:00.680Z,4.5
2024-05-09T12:35:00.658Z,4.5
2024-05-09T12:36:00.822Z,4.5
2024-05-09T12:37:00.830Z,4.5
2024-05-09T12:38:00.709Z,4.5
2024-05-09T12:39:01.019Z,4.5
2024-05-09T12:40:00.602Z,4.5
2024-05-09T12:41:00.695Z,4.5
2024-05-09T12:42:00.539Z,4.5
2024-05-09T12:43:00.608Z,4.5
2024-05-09T12:44:00.592Z,6.1
2024-05-09T12:45:00.551Z,6.1
2024-05-09T12:46:00.966Z,6.1
2024-05-09T12:47:00.739Z,6.1
2024-05-09T12:48:01.132Z,6.1
2024-05-09T12:49:01.217Z,6.1
2024-05-09T12:50:00.944Z,6.1
2024-05-09T12:51:00.528Z,6.1
2024-05-09T12:52:00.702Z,6.1
2024-05-09T12:53:01.000Z,6.1
2024-05-09T12:54:00.540Z,5.1
2024-05-09T12:55:00.666Z,5.1
2024-05-09T12:56:02.945Z,5.1
2024-05-09T12:57:00.687Z,5.1
2024-05-09T12:58:00.622Z,5.1
2024-05-09T12:59:00.602Z,5.1
2024-05-09T13:00:00.574Z,5.1
2024-05-09T13:01:00.664Z,5.1
2024-05-09T13:02:01.266Z,5.1
2024-05-09T13:03:01.228Z,5.1
2024-05-09T13:04:00.774Z,4.6
2024-05-09T13:05:00.733Z,4.6
2024-05-09T13:06:00.636Z,4.6
2024-05-09T13:07:00.646Z,4.6
2024-05-09T13:08:00.747Z,4.6
2024-05-09T13:09:00.596Z,4.6
2024-05-09T13:10:00.906Z,4.6
2024-05-09T13:11:00.567Z,4.6
2024-05-09T13:12:00.592Z,4.6
2024-05-09T13:13:01.443Z,4.6
2024-05-09T13:14:00.554Z,5.1
2024-05-09T13:15:00.523Z,5.1
2024-05-09T13:16:00.753Z,5.1
2024-05-09T13:17:00.625Z,5.1
2024-05-09T13:18:03.279Z,5.1
2024-05-09T13:19:00.678Z,5.1
2024-05-09T13:20:00.500Z,5.1
2024-05-09T13:21:00.775Z,5.1
2024-05-09T13:22:00.639Z,5.1
2024-05-09T13:23:00.998Z,5.1
2024-05-09T13:24:00.716Z,6.2
2024-05-09T13:25:00.600Z,6.2
2024-05-09T13:26:00.562Z,6.2
2024-05-09T13:27:00.633Z,6.2
2024-05-09T13:28:01.016Z,6.2
2024-05-09T13:29:00.558Z,6.2
2024-05-09T13:30:00.660Z,6.2
2024-05-09T13:31:00.673Z,6.2
2024-05-09T13:32:00.711Z,6.2
2024-05-09T13:33:00.619Z,6.2
2024-05-09T13:34:01.149Z,4.0
2024-05-09T13:35:00.536Z,4.0
2024-05-09T13:36:00.559Z,4.0
2024-05-09T13:37:00.662Z,4.0
2024-05-09T13:38:00.813Z,4.0
2024-05-09T13:39:00.609Z,4.0
2024-05-09T13:40:00.707Z,4.0
2024-05-09T13:41:00.686Z,4.0
2024-05-09T13:42:00.802Z,4.0
2024-05-09T13:43:00.586Z,4.0
2024-05-09T13:44:00.535Z,5.7
2024-05-09T13:45:00.534Z,5.7
2024-05-09T13:46:00.682Z,5.7
2024-05-09T13:47:00.726Z,5.7
2024-05-09T13:48:01.019Z,5.7
2024-05-09T13:49:01.836Z,5.7